Terminal Aerodrome Forecast
Issued by NWS Portland, OR

Home | Current Version | Previous Version | Text Only | Print | Product List | Glossary On
Versions: 1 2 3 4 5 6 7 8 9 10 11 12 13 14 15
000
FTUS46 KPQR 271140
TAFEUG
TAF
KEUG 271140Z 2712/2812 28004KT P6SM OVC015
     FM271800 35006KT P6SM OVC030
     FM272100 33009KT P6SM FEW250
     FM280400 31005KT P6SM SKC
     FM281000 VRB03KT P6SM SCT025=

USA.gov is the U.S. government's official web portal to all federal, state and local government web resources and services.